createdAt,value
2022-10-14T00:02:20.791Z,13.50
2022-10-14T00:04:47.297Z,14.43
2022-10-14T00:07:13.822Z,13.82
2022-10-14T00:09:42.168Z,15.13
2022-10-14T00:12:08.632Z,11.40
2022-10-14T00:14:35.137Z,12.55
2022-10-14T00:17:01.762Z,12.63
2022-10-14T00:19:28.527Z,11.07
2022-10-14T00:21:55.021Z,8.88
2022-10-14T00:24:21.585Z,9.13
2022-10-14T00:26:48.115Z,9.88
2022-10-14T00:29:18.933Z,8.68
2022-10-14T00:31:46.314Z,8.82
2022-10-14T00:34:15.816Z,12.13
2022-10-14T00:36:42.868Z,7.57
2022-10-14T00:39:09.960Z,6.40
2022-10-14T00:41:36.833Z,11.77
2022-10-14T00:44:03.348Z,9.55
2022-10-14T00:46:33.040Z,11.93
2022-10-14T00:49:03.570Z,12.00
2022-10-14T00:51:30.175Z,9.52
2022-10-14T00:53:56.958Z,8.68
2022-10-14T00:56:28.614Z,11.55
2022-10-14T00:58:56.060Z,9.93
2022-10-14T01:01:23.046Z,10.23
2022-10-14T01:03:50.961Z,13.35
2022-10-14T01:06:47.841Z,11.88
2022-10-14T01:09:20.842Z,7.90
2022-10-14T01:12:28.704Z,7.10
2022-10-14T01:14:59.931Z,9.73
2022-10-14T01:18:11.038Z,5.53
2022-10-14T01:21:15.063Z,8.82
2022-10-14T01:24:02.672Z,6.68
2022-10-14T01:26:47.581Z,8.38
2022-10-14T01:29:27.845Z,5.32
2022-10-14T01:32:02.909Z,7.40
2022-10-14T01:34:39.942Z,5.72
2022-10-14T01:37:15.272Z,8.35
2022-10-14T01:39:45.773Z,7.38
2022-10-14T01:42:18.253Z,7.40
2022-10-14T01:44:50.958Z,9.07
2022-10-14T01:47:21.162Z,6.38
2022-10-14T01:49:53.831Z,10.32
2022-10-14T01:52:27.748Z,8.98
2022-10-14T01:54:59.088Z,7.32
2022-10-14T01:57:29.220Z,8.15
2022-10-14T01:59:56.163Z,8.25
2022-10-14T02:02:24.773Z,10.40
2022-10-14T02:04:51.781Z,5.95
2022-10-14T02:07:34.573Z,7.75
2022-10-14T02:10:19.248Z,6.60
2022-10-14T02:12:56.784Z,6.70
2022-10-14T02:15:36.717Z,7.00
2022-10-14T02:18:10.088Z,6.07
2022-10-14T02:21:00.268Z,8.45
2022-10-14T02:23:32.285Z,8.57
2022-10-14T02:26:00.324Z,7.20
2022-10-14T02:28:29.052Z,7.38
2022-10-14T02:31:02.381Z,8.05
2022-10-14T02:33:33.831Z,8.52
2022-10-14T02:36:02.562Z,7.80
2022-10-14T02:38:31.198Z,8.27
2022-10-14T02:41:01.609Z,6.78
2022-10-14T02:43:28.116Z,6.32
2022-10-14T02:45:59.289Z,7.72
2022-10-14T02:48:25.917Z,8.43
2022-10-14T02:50:52.388Z,9.57
2022-10-14T02:53:19.017Z,12.35
2022-10-14T02:55:45.564Z,6.35
2022-10-14T02:58:12.081Z,7.85
2022-10-14T03:00:39.210Z,8.60
2022-10-14T03:03:05.706Z,10.38
2022-10-14T03:05:32.250Z,8.73
2022-10-14T03:07:58.834Z,6.90
2022-10-14T03:10:25.399Z,7.78
2022-10-14T03:12:51.908Z,4.78
2022-10-14T03:15:19.098Z,6.45
2022-10-14T03:17:45.587Z,5.93
2022-10-14T03:20:12.343Z,9.07
2022-10-14T03:22:39.233Z,7.40
2022-10-14T03:25:06.405Z,10.60
2022-10-14T03:27:32.913Z,8.55
2022-10-14T03:29:59.500Z,6.53
2022-10-14T03:32:26.081Z,6.45
2022-10-14T03:34:52.551Z,7.30
2022-10-14T03:37:19.206Z,7.75
2022-10-14T03:39:45.690Z,7.15
2022-10-14T03:42:12.206Z,8.93
2022-10-14T03:44:39.226Z,7.05
2022-10-14T03:47:05.869Z,7.88
2022-10-14T03:49:32.388Z,9.55
2022-10-14T03:51:58.998Z,8.40
2022-10-14T03:54:25.466Z,8.00
2022-10-14T03:56:51.978Z,6.53
2022-10-14T03:59:18.665Z,7.63
2022-10-14T04:01:45.202Z,9.05
2022-10-14T04:04:11.794Z,9.82
2022-10-14T04:06:38.508Z,7.93
2022-10-14T04:09:05.417Z,7.68
2022-10-14T04:11:31.918Z,8.15
2022-10-14T04:13:59.376Z,7.43
2022-10-14T04:16:27.143Z,7.10
2022-10-14T04:18:54.313Z,9.02
2022-10-14T04:21:21.106Z,7.47
2022-10-14T04:23:47.754Z,7.05
2022-10-14T04:26:14.865Z,10.43
2022-10-14T04:28:41.588Z,9.75
2022-10-14T04:31:08.357Z,15.80
2022-10-14T04:33:35.198Z,14.25
2022-10-14T04:36:04.436Z,11.73
2022-10-14T04:38:31.374Z,15.20
2022-10-14T04:40:58.228Z,13.27
2022-10-14T04:43:24.912Z,15.63
2022-10-14T04:45:51.827Z,15.38
2022-10-14T04:48:18.496Z,14.43
2022-10-14T04:50:45.192Z,15.98
2022-10-14T04:53:13.698Z,17.30
2022-10-14T04:55:40.923Z,16.35
2022-10-14T04:58:07.641Z,15.30
2022-10-14T05:00:34.194Z,16.60
2022-10-14T05:03:00.716Z,20.92
2022-10-14T05:05:27.424Z,17.52
2022-10-14T05:07:53.968Z,16.63
2022-10-14T05:10:20.526Z,16.73
2022-10-14T05:12:47.891Z,15.10
2022-10-14T05:15:14.653Z,16.25
2022-10-14T05:17:44.533Z,19.58
2022-10-14T05:20:12.231Z,15.00
2022-10-14T05:22:39.180Z,16.92
2022-10-14T05:25:06.107Z,17.05
2022-10-14T05:27:32.854Z,14.80
2022-10-14T05:29:59.345Z,16.52
2022-10-14T05:32:25.821Z,16.05
2022-10-14T05:34:52.497Z,15.82
2022-10-14T05:37:18.992Z,16.33
2022-10-14T05:39:45.474Z,17.35
2022-10-14T05:42:12.201Z,16.17
2022-10-14T05:44:38.732Z,15.30
2022-10-14T05:47:05.262Z,16.00
2022-10-14T05:49:32.081Z,13.25
2022-10-14T05:51:58.786Z,16.30
2022-10-14T05:54:25.298Z,14.98
2022-10-14T05:56:51.912Z,16.90
2022-10-14T05:59:18.415Z,14.60
2022-10-14T06:01:44.954Z,14.68
2022-10-14T06:04:18.505Z,15.45
2022-10-14T06:06:45.221Z,13.68
2022-10-14T06:09:12.376Z,14.82
2022-10-14T06:11:39.718Z,16.30
2022-10-14T06:14:06.384Z,16.17
2022-10-14T06:16:33.059Z,20.02
2022-10-14T06:18:59.993Z,14.18
2022-10-14T06:21:26.538Z,15.32
2022-10-14T06:23:53.024Z,20.80
2022-10-14T06:26:20.029Z,19.45
2022-10-14T06:28:46.733Z,17.27
2022-10-14T06:31:13.386Z,15.65
2022-10-14T06:33:40.135Z,15.57
2022-10-14T06:36:07.191Z,19.25
2022-10-14T06:38:33.797Z,20.27
2022-10-14T06:41:00.552Z,17.35
2022-10-14T06:43:27.042Z,18.95
2022-10-14T06:45:57.222Z,17.92
2022-10-14T06:48:23.848Z,20.02
2022-10-14T06:50:50.350Z,18.02
2022-10-14T06:53:16.916Z,17.65
2022-10-14T06:55:43.513Z,21.77
2022-10-14T06:58:10.155Z,19.92
2022-10-14T07:00:37.463Z,18.50
2022-10-14T07:03:04.357Z,17.92
2022-10-14T07:05:31.009Z,19.25
2022-10-14T07:07:58.709Z,16.67
2022-10-14T07:10:25.909Z,19.00
2022-10-14T07:12:56.295Z,16.30
2022-10-14T07:15:23.269Z,20.75
2022-10-14T07:17:50.084Z,20.63
2022-10-14T07:20:16.657Z,22.33
2022-10-14T07:22:43.248Z,19.83
2022-10-14T07:25:11.069Z,19.98
2022-10-14T07:27:37.617Z,20.50
2022-10-14T07:30:05.742Z,20.63
2022-10-14T07:32:36.928Z,20.98
2022-10-14T07:35:04.185Z,24.20
2022-10-14T07:37:31.463Z,22.25
2022-10-14T07:39:58.454Z,18.95
2022-10-14T07:42:25.035Z,19.05
2022-10-14T07:44:54.059Z,19.00
2022-10-14T07:47:21.510Z,23.02
2022-10-14T07:49:48.247Z,20.73
2022-10-14T07:52:15.812Z,19.00
2022-10-14T07:54:42.867Z,22.10
2022-10-14T07:57:09.368Z,18.80
2022-10-14T07:59:35.924Z,19.77
2022-10-14T08:02:04.195Z,19.65
2022-10-14T08:04:33.235Z,22.58
2022-10-14T08:06:59.782Z,18.73
2022-10-14T08:11:53.860Z,20.25
2022-10-14T08:14:20.354Z,23.58
2022-10-14T08:16:47.940Z,21.48
2022-10-14T08:19:15.040Z,16.77
2022-10-14T08:21:42.780Z,20.42
2022-10-14T08:24:10.113Z,21.35
2022-10-14T08:26:39.106Z,20.92
2022-10-14T08:29:09.992Z,18.23
2022-10-14T08:31:36.985Z,23.45
2022-10-14T08:34:03.717Z,19.33
2022-10-14T08:36:30.190Z,20.83
2022-10-14T08:38:57.111Z,17.00
2022-10-14T08:41:26.557Z,20.23
2022-10-14T08:44:18.112Z,20.15
2022-10-14T08:46:57.646Z,19.55
2022-10-14T08:49:30.429Z,17.45
2022-10-14T08:52:09.540Z,19.00
2022-10-14T08:54:43.835Z,15.75
2022-10-14T08:57:23.308Z,17.80
2022-10-14T08:59:50.347Z,19.25
2022-10-14T09:02:39.200Z,20.33
2022-10-14T09:05:07.378Z,20.60
2022-10-14T09:07:36.959Z,16.58
2022-10-14T09:10:12.191Z,19.35
2022-10-14T09:12:40.185Z,16.70
2022-10-14T09:15:17.070Z,15.90
2022-10-14T09:22:43.058Z,15.20
2022-10-14T09:25:15.975Z,14.30
2022-10-14T09:27:42.973Z,14.38
2022-10-14T09:30:16.193Z,17.10
2022-10-14T09:32:46.506Z,13.45
2022-10-14T09:35:26.759Z,14.85
2022-10-14T09:37:53.618Z,14.25
2022-10-14T09:40:31.465Z,12.95
2022-10-14T09:43:10.662Z,11.13
2022-10-14T09:45:48.378Z,13.63
2022-10-14T09:48:29.427Z,15.02
2022-10-14T09:50:58.045Z,14.88
2022-10-14T09:53:42.196Z,15.50
2022-10-14T09:56:11.767Z,14.68
2022-10-14T09:58:56.460Z,13.32
2022-10-14T10:01:25.340Z,13.48
2022-10-14T10:03:53.941Z,13.55
2022-10-14T10:06:23.812Z,12.25
2022-10-14T10:08:54.357Z,11.07
2022-10-14T10:11:37.417Z,13.07
2022-10-14T10:16:42.998Z,14.02
2022-10-14T10:19:30.264Z,14.80
2022-10-14T10:22:23.424Z,13.63
2022-10-14T10:25:10.601Z,15.52
2022-10-14T10:27:42.461Z,11.52
2022-10-14T10:30:15.081Z,11.77
2022-10-14T10:33:17.072Z,13.48
2022-10-14T10:36:13.679Z,11.02
2022-10-14T10:39:02.705Z,10.25
2022-10-14T10:42:02.717Z,11.00
2022-10-14T10:44:43.925Z,10.40
2022-10-14T10:47:32.658Z,10.25
2022-10-14T10:50:23.213Z,13.93
2022-10-14T10:53:25.974Z,12.93
2022-10-14T10:56:10.115Z,11.63
2022-10-14T10:59:00.008Z,9.60
2022-10-14T11:02:04.409Z,11.80
2022-10-14T11:17:48.468Z,11.43
2022-10-14T11:20:40.069Z,11.18
2022-10-14T11:23:15.635Z,12.05
2022-10-14T11:26:06.690Z,13.13
2022-10-14T11:28:51.762Z,10.02
2022-10-14T11:31:36.464Z,10.35
2022-10-14T11:34:39.208Z,11.02
2022-10-14T11:37:39.092Z,8.15
2022-10-14T11:40:23.919Z,10.98
2022-10-14T11:42:50.797Z,11.13
2022-10-14T11:45:24.405Z,10.73
2022-10-14T11:47:54.364Z,12.27
2022-10-14T11:50:29.310Z,9.80
2022-10-14T11:53:07.664Z,10.50
2022-10-14T11:55:39.711Z,11.43
2022-10-14T11:58:20.230Z,12.43
2022-10-14T12:00:51.542Z,10.10
2022-10-14T12:03:46.206Z,9.50
2022-10-14T12:06:27.330Z,12.80
2022-10-14T12:09:01.610Z,13.30
2022-10-14T12:11:30.920Z,9.52
2022-10-14T12:14:25.947Z,10.18
2022-10-14T12:16:53.421Z,9.80
2022-10-14T12:19:26.341Z,10.23
2022-10-14T12:22:25.929Z,11.05
2022-10-14T12:24:59.907Z,9.25
2022-10-14T12:27:28.616Z,11.52
2022-10-14T12:29:58.443Z,11.98
2022-10-14T12:32:27.764Z,11.18
2022-10-14T12:34:56.514Z,8.73
2022-10-14T12:37:32.369Z,10.13
2022-10-14T12:40:02.065Z,12.48
2022-10-14T12:42:34.891Z,11.77
2022-10-14T12:45:14.495Z,10.32
2022-10-14T12:47:41.800Z,11.10
2022-10-14T12:50:28.838Z,10.60
2022-10-14T12:52:59.025Z,13.43
2022-10-14T12:55:29.086Z,10.45
2022-10-14T12:57:59.558Z,9.93
2022-10-14T13:00:26.037Z,14.95
2022-10-14T13:03:00.292Z,13.35
2022-10-14T13:05:32.683Z,11.68
2022-10-14T13:08:19.508Z,12.98
2022-10-14T13:11:12.627Z,8.77
2022-10-14T13:13:42.437Z,10.85
2022-10-14T13:16:31.941Z,12.70
2022-10-14T13:18:59.913Z,11.50
2022-10-14T13:21:35.520Z,11.65
2022-10-14T13:24:15.844Z,7.82
2022-10-14T13:26:55.792Z,15.55
2022-10-14T13:29:50.443Z,9.68
2022-10-14T13:32:41.246Z,10.57
2022-10-14T13:35:57.550Z,8.95
2022-10-14T13:38:24.639Z,8.88
2022-10-14T13:40:53.920Z,6.90
2022-10-14T13:43:28.724Z,9.07
2022-10-14T13:46:02.500Z,9.32
2022-10-14T13:48:35.390Z,8.73
2022-10-14T13:51:36.158Z,7.38
2022-10-14T13:54:17.092Z,6.43
2022-10-14T13:57:13.771Z,6.90
2022-10-14T14:00:37.945Z,5.65
2022-10-14T14:02:34.028Z,5.15
2022-10-14T14:05:01.559Z,4.88
2022-10-14T14:08:14.545Z,8.55
2022-10-14T14:10:24.342Z,6.20
2022-10-14T14:12:51.131Z,6.72
2022-10-14T14:15:23.529Z,6.70
2022-10-14T14:17:50.353Z,9.45
2022-10-14T14:20:22.781Z,6.78
2022-10-14T14:22:50.397Z,4.95
2022-10-14T14:25:37.015Z,5.82
2022-10-14T14:30:38.806Z,6.20
2022-10-14T14:33:11.089Z,5.43
2022-10-14T14:35:37.958Z,5.03
2022-10-14T14:38:04.546Z,4.00
2022-10-14T14:40:31.766Z,4.85
2022-10-14T14:43:02.097Z,6.40
2022-10-14T14:45:37.137Z,6.13
2022-10-14T14:48:06.426Z,6.88
2022-10-14T14:50:37.409Z,4.55
2022-10-14T14:53:10.613Z,3.97
2022-10-14T14:56:00.599Z,3.50
2022-10-14T14:58:32.738Z,4.05
2022-10-14T15:00:59.612Z,5.43
2022-10-14T15:03:28.606Z,3.28
2022-10-14T15:05:59.070Z,5.85
2022-10-14T15:08:28.919Z,4.07
2022-10-14T15:10:57.075Z,5.97
2022-10-14T15:13:32.727Z,5.50
2022-10-14T15:15:59.886Z,5.18
2022-10-14T15:18:28.601Z,5.32
2022-10-14T15:21:25.182Z,3.42
2022-10-14T15:23:53.345Z,4.88
2022-10-14T15:26:36.170Z,4.53
2022-10-14T15:29:08.869Z,5.78
2022-10-14T15:31:36.848Z,8.90
2022-10-14T15:34:04.303Z,3.67
2022-10-14T15:36:33.556Z,4.47
2022-10-14T15:39:01.557Z,4.57
2022-10-14T15:41:28.906Z,4.05
2022-10-14T15:43:55.634Z,5.05
2022-10-14T15:46:41.884Z,4.95
2022-10-14T15:49:19.926Z,4.82
2022-10-14T15:51:46.465Z,5.53
2022-10-14T15:54:13.061Z,7.97
2022-10-14T15:56:39.560Z,4.53
2022-10-14T15:59:06.434Z,6.22
2022-10-14T16:01:35.860Z,8.45
2022-10-14T16:04:03.840Z,6.90
2022-10-14T16:06:32.772Z,6.25
2022-10-14T16:08:59.446Z,7.05
2022-10-14T16:11:28.995Z,7.57
2022-10-14T16:13:56.141Z,7.93
2022-10-14T16:16:31.828Z,8.35
2022-10-14T16:18:59.919Z,6.35
2022-10-14T16:21:27.232Z,9.27
2022-10-14T16:23:54.435Z,6.25
2022-10-14T16:26:21.164Z,7.45
2022-10-14T16:28:47.923Z,10.07
2022-10-14T16:31:15.300Z,8.55
2022-10-14T16:33:44.851Z,7.15
2022-10-14T16:38:41.644Z,7.03
2022-10-14T16:41:10.238Z,8.38
2022-10-14T16:43:37.056Z,10.27
2022-10-14T16:46:04.885Z,6.75
2022-10-14T16:48:33.183Z,9.68
2022-10-14T16:51:00.108Z,7.57
2022-10-14T16:53:40.725Z,10.82
2022-10-14T16:56:35.611Z,6.85
2022-10-14T16:59:02.423Z,7.88
2022-10-14T17:01:30.781Z,23.25
2022-10-14T17:03:57.899Z,10.75
2022-10-14T17:06:25.608Z,13.98
2022-10-14T17:08:52.618Z,14.52
2022-10-14T17:11:19.635Z,10.07
2022-10-14T17:13:46.389Z,12.68
2022-10-14T17:16:13.061Z,8.32
2022-10-14T17:18:39.581Z,13.30
2022-10-14T17:21:08.613Z,9.45
2022-10-14T17:23:36.685Z,7.22
2022-10-14T17:26:05.362Z,8.75
2022-10-14T17:28:32.999Z,9.18
2022-10-14T17:31:01.367Z,12.15
2022-10-14T17:33:28.250Z,10.25
2022-10-14T17:35:59.368Z,8.27
2022-10-14T17:38:30.246Z,9.50
2022-10-14T17:41:08.322Z,15.35
2022-10-14T17:43:35.646Z,8.95
2022-10-14T17:48:35.654Z,8.65
2022-10-14T17:51:02.480Z,9.32
2022-10-14T17:53:29.242Z,7.78
2022-10-14T17:55:57.755Z,9.85
2022-10-14T17:58:24.529Z,6.93
2022-10-14T18:00:51.002Z,6.00
2022-10-14T18:03:18.669Z,7.65
2022-10-14T18:05:48.749Z,5.90
2022-10-14T18:08:15.599Z,7.95
2022-10-14T18:10:42.235Z,5.57
2022-10-14T18:13:08.795Z,5.35
2022-10-14T18:15:36.278Z,6.55
2022-10-14T18:18:02.942Z,7.03
2022-10-14T18:20:29.514Z,8.73
2022-10-14T18:22:56.084Z,5.65
2022-10-14T18:25:22.716Z,7.93
2022-10-14T18:27:49.390Z,7.38
2022-10-14T18:30:15.869Z,10.00
2022-10-14T18:32:42.548Z,9.75
2022-10-14T18:35:09.468Z,9.98
2022-10-14T18:37:35.977Z,8.77
2022-10-14T18:40:02.545Z,8.40
2022-10-14T18:42:29.118Z,5.95
2022-10-14T18:44:56.356Z,8.15
2022-10-14T18:47:22.999Z,5.20
2022-10-14T18:49:50.999Z,6.50
2022-10-14T18:52:18.914Z,7.18
2022-10-14T18:54:45.555Z,10.05
2022-10-14T18:57:14.993Z,9.93
2022-10-14T18:59:41.882Z,5.40
2022-10-14T19:02:12.865Z,8.85
2022-10-14T19:04:39.689Z,6.68
2022-10-14T19:07:07.271Z,6.50
2022-10-14T19:09:34.266Z,6.93
2022-10-14T19:12:21.144Z,7.85
2022-10-14T19:14:47.822Z,6.45
2022-10-14T19:19:45.848Z,8.13
2022-10-14T19:22:12.513Z,8.98
2022-10-14T19:24:39.052Z,7.50
2022-10-14T19:27:05.710Z,9.10
2022-10-14T19:29:32.370Z,9.95
2022-10-14T19:31:59.174Z,8.18
2022-10-14T19:34:27.321Z,9.40
2022-10-14T19:36:54.358Z,8.70
2022-10-14T19:39:20.957Z,7.57
2022-10-14T19:41:47.566Z,9.70
2022-10-14T19:44:15.831Z,9.52
2022-10-14T19:46:43.183Z,7.57
2022-10-14T19:49:13.098Z,11.15
2022-10-14T19:51:39.998Z,9.15
2022-10-14T19:54:06.631Z,10.52
2022-10-14T19:56:33.181Z,7.85
2022-10-14T19:59:00.075Z,10.90
2022-10-14T20:01:28.619Z,13.15
2022-10-14T20:03:55.490Z,8.32
2022-10-14T20:06:23.394Z,10.02
2022-10-14T20:08:50.335Z,10.68
2022-10-14T20:11:19.123Z,9.23
2022-10-14T20:13:45.826Z,8.27
2022-10-14T20:16:13.321Z,10.70
2022-10-14T20:18:39.865Z,10.25
2022-10-14T20:21:08.038Z,8.15
2022-10-14T20:23:36.400Z,7.03
2022-10-14T20:26:05.372Z,7.55
2022-10-14T20:28:32.388Z,6.70
2022-10-14T20:30:59.110Z,7.95
2022-10-14T20:33:25.687Z,11.40
2022-10-14T20:36:03.323Z,6.38
2022-10-14T20:38:30.194Z,6.10
2022-10-14T20:41:06.594Z,9.02
2022-10-14T20:43:33.160Z,6.55
2022-10-14T20:45:59.739Z,8.98
2022-10-14T20:48:26.431Z,7.28
2022-10-14T20:50:52.926Z,8.50
2022-10-14T20:53:19.562Z,6.97
2022-10-14T20:55:46.120Z,6.35
2022-10-14T20:58:12.727Z,21.73
2022-10-14T21:00:39.297Z,17.58
2022-10-14T21:03:05.848Z,9.63
2022-10-14T21:05:36.230Z,11.40
2022-10-14T21:08:02.880Z,8.18
2022-10-14T21:10:29.531Z,7.93
2022-10-14T21:12:56.101Z,9.02
2022-10-14T21:15:26.762Z,11.13
2022-10-14T21:17:53.377Z,12.95
2022-10-14T21:20:19.881Z,10.10
2022-10-14T21:22:46.390Z,12.65
2022-10-14T21:25:13.070Z,9.23
2022-10-14T21:27:39.560Z,8.70
2022-10-14T21:30:06.812Z,9.85
2022-10-14T21:32:33.497Z,7.95
2022-10-14T21:35:00.012Z,10.25
2022-10-14T21:37:26.516Z,8.25
2022-10-14T21:39:53.101Z,7.82
2022-10-14T21:42:19.774Z,10.73
2022-10-14T21:44:46.457Z,8.15
2022-10-14T21:47:13.323Z,7.53
2022-10-14T21:49:39.882Z,11.52
2022-10-14T21:52:06.446Z,7.03
2022-10-14T21:54:33.135Z,7.15
2022-10-14T21:56:59.624Z,10.00
2022-10-14T21:59:26.258Z,11.13
2022-10-14T22:01:56.557Z,7.22
2022-10-14T22:04:23.057Z,9.48
2022-10-14T22:06:49.523Z,8.90
2022-10-14T22:09:16.222Z,5.70
2022-10-14T22:11:42.852Z,10.75
2022-10-14T22:14:17.643Z,7.10
2022-10-14T22:16:45.721Z,8.23
2022-10-14T22:19:13.229Z,9.73
2022-10-14T22:21:41.584Z,8.32
2022-10-14T22:24:09.180Z,9.48
2022-10-14T22:26:35.970Z,11.63
2022-10-14T22:29:10.529Z,9.35
2022-10-14T22:31:37.338Z,9.05
2022-10-14T22:34:06.228Z,10.25
2022-10-14T22:36:34.755Z,8.57
2022-10-14T22:39:02.867Z,9.68
2022-10-14T22:41:34.933Z,6.93
2022-10-14T22:44:02.536Z,9.27
2022-10-14T22:46:31.585Z,8.15
2022-10-14T22:48:59.107Z,8.63
2022-10-14T22:51:31.251Z,7.97
2022-10-14T22:53:58.250Z,11.43
2022-10-14T22:56:27.107Z,8.52
2022-10-14T22:58:54.568Z,8.55
2022-10-14T23:01:21.599Z,11.45
2022-10-14T23:03:48.298Z,11.25
2022-10-14T23:06:15.738Z,9.75
2022-10-14T23:08:42.796Z,6.50
2022-10-14T23:11:14.513Z,8.45
2022-10-14T23:13:41.442Z,9.98
2022-10-14T23:16:11.962Z,11.35
2022-10-14T23:18:39.390Z,8.20
2022-10-14T23:21:23.747Z,6.45
2022-10-14T23:23:51.394Z,8.65
2022-10-14T23:26:23.865Z,8.25
2022-10-14T23:28:55.435Z,10.77
2022-10-14T23:31:29.242Z,7.78
2022-10-14T23:33:58.661Z,9.00
2022-10-14T23:36:25.318Z,8.85
2022-10-14T23:38:52.577Z,8.70
2022-10-14T23:41:22.223Z,10.88
2022-10-14T23:43:50.126Z,8.63
2022-10-14T23:46:16.807Z,7.82
2022-10-14T23:48:43.445Z,7.43
2022-10-14T23:51:12.288Z,7.75
2022-10-14T23:53:38.874Z,8.15
2022-10-14T23:56:06.023Z,10.43
2022-10-14T23:58:33.457Z,6.40
